Batavia, OH (45103)

02:05 AM EST del 01 Febbraio 2015 (GMT -0500)
Pleasant Acres | Change Station
CLOSE
Current Station
Stazione meteo personale
Location: Batavia, OH
Altitudine: 843 ft
Stazioni meteo nelle vicinanze
Avvisi attivi: Winter Weather Advisory

Alt. 843 ft 39.07 °N, 84.15 °W | Updated 13 seconds ago

Coperto
Coperto
32.7 °F
Sembra 33 °F
N
0.0
Vento Variabile Vento da SE
Gusts 0.0 mph

Oggi
Massima -- | Minima -- °F
--% Possibilità di precip.
Ieri
Massima -- | Minima -- °F
Precip. -- in
7:43 AM 5:57 PM
Gobba a ponente, 93% visible
Pressione 30.20 in
Visibilità 10.0 miglia
Nuvole Nubi sparse 1700 ft
Coperto 2600 ft
Raffreddamento del vento 33 °F
Punto di rugiada 29 °F
Umidità 87%
Piovosità 0.00 in
Spessore del manto nevoso Non disponibile.
Raggi UV 0 fuori da 12
Polline .10 fuori da 12
Qualità dell'aria Non disponibile.
Flu Activity Non disponibile.
METAR KI69 010657Z AUTO 00000KT 10SM SCT017 OVC026 01/00 A3020 RMK AO1

More Conditions Fewer Conditions

Pressione 30.20 in
Visibilità 10.0 miglia
Nuvole Nubi sparse 1700 ft
Coperto 2600 ft
Raffreddamento del vento 33 °F
Punto di rugiada 29 °F
Umidità 87%
Piovosità 0.00 in
Spessore del manto nevoso Non disponibile.
Raggi UV 0 fuori da 12
Polline .10 fuori da 12
Qualità dell'aria Non disponibile.
Flu Activity Non disponibile.
METAR KI69 010657Z AUTO 00000KT 10SM SCT017 OVC026 01/00 A3020 RMK AO1

More Conditions Fewer Conditions

10-Day Weather Forecast

Almanac

Astronomia

Feb. 01, 2015 Alba Tramonto
Ora attuale
Crepuscolo civile
Crepuscolo nautico
Crepuscolo astronomico
Luna
Estensione della luce visibile
Lunghezza del giorno
Tomorrow will be .
, % of the Moon is Illuminated

Gli estremi di oggi

State Highs State Lows

Community

WunderPhotos

Upload Photos

1,792,325 foto caricate!

WunderBlogs® & News

Nearby

Qualità dell'aria

  Qualità dell'aria Indice AQ Inquinante
Not available.

Profondità neve

Stazione Profondità Altitudine

Attività sismica

Città  Distanza Mag. Data & Ora
Minimo Magnitudo Mostrato è 2.5.

Temperature delle acque costiere

Località Temperatura

Stazioni meteo nelle vicinanze